Mocanaqua, Pennsylvania
Current Conditions -  °F | °C
As of 4:55 AM on Friday 19 Dec 2014 (Local Time) from KHZL Reporting Station
Unknown Precip Unknown Precip  
Wind Chill: 23°   Ceiling: 400
Heat Index: 30°   Visibility: 5mi
Dew Point: 28°   Wind: 8mph
Humidity: 93%   Direction: 270°W
Pressure: 29.98"   Gusts: NA
Location:  41.1968°N, 76.1956°W
Report Text: KHZL 190955Z AUTO 27007KT 5SM UP OVC004 M01/M02 A2998 RMK AO2
Loading
Personal Weather Stations






























Interactive Weather Map New forecast layout! Learn more

10-Day Weather Forecast

Advertisements
Track Severe Weather on mobile